Flood From: 19-02-2018 10:30 Until: 20-02-2018 06:00 warning for: Flood Level: Yellow info button

Although rather usual in this region, locally or potentially dangerous phenomena are expected. (such as local winds, summer thunderstorms, rising streams or high waves) Be aware and pay attention to the latest weather updates, especially if you carry out activities exposed to weather or close to a stream or shoreline. 


Meteo18 Weather Cam more information Meteo18 Weather Cam


Thunder radar more information blitzortung!


Rain radar more information rain snow radar


Visit our other weather sites:

Template documentation
and downloads

And another site



Weather Underground History page Text

Daily Summary for March 24, 2017 Units:  Metric    English   Both
« Previous Day
Next Day »
Daily Weekly Monthly Yearly Custom
  High: Low: Average:
Temperature: -17.8 °C -15.8 °C -13.4 °C
Dew Point: -17.8 °C -16.2 °C -14.2 °C
Humidity: Humidity % 78 % 90 %
Wind Speed: 0 km/h 0 km/h 11.7 km/h
Wind Gust: 0 km/h - -
Wind:- - ENE
Pressure: 0 hPa 34452.6 hPa -
Precipitation: 38.1 mm    
Historical Graphs
 
 
Tabular Data for March 24, 2017
Time Temperature Dew Point Pressure Wind Wind Speed Wind Gust Humidity Rainfall Rate (Hourly)
-17.8 °C -17.8 °C 0 hPa Calm     Humidity % 0 mm
00:02 -14.9 °C -15.4 °C 34452.6 hPa Calm   5.1 km/h 94 % 0 mm
00:07 -14.9 °C -15.4 °C 34452.6 hPa NE 2.6 km/h 2.6 km/h 94 % 0 mm
00:12 -14.9 °C -15.4 °C 34462.7 hPa ENE 2.6 km/h 2.6 km/h 94 % 0 mm
00:17 -14.9 °C -15.4 °C 34462.7 hPa ENE 2.6 km/h 5.1 km/h 94 % 0 mm
00:22 -14.9 °C -15.5 °C 34476.3 hPa Calm   5.1 km/h 93 % 0 mm
00:32 -15.2 °C -15.7 °C 34476.3 hPa Calm   5.1 km/h 94 % 0 mm
00:37 -15.3 °C -15.8 °C 34486.4 hPa Calm   5.1 km/h 93 % 0 mm
00:42 -15.4 °C -15.9 °C 34486.4 hPa Calm   2.6 km/h 94 % 0 mm
00:52 -15.3 °C -15.7 °C 34486.4 hPa ENE 2.6 km/h 2.6 km/h 95 % 0 mm
00:57 -15.3 °C -15.7 °C 34486.4 hPa Calm   2.6 km/h 95 % 0 mm
01:02 -15.3 °C -15.7 °C 34496.6 hPa Calm   2.6 km/h 95 % 0 mm
01:12 -15.4 °C -15.8 °C 34496.6 hPa Calm   2.6 km/h 95 % 0 mm
01:17 -15.5 °C -15.9 °C 34496.6 hPa Calm   2.6 km/h 95 % 0 mm
01:22 -15.5 °C -15.9 °C 34496.6 hPa North 2.6 km/h 2.6 km/h 95 % 0 mm
01:32 -15.7 °C -16.1 °C 34496.6 hPa North 2.6 km/h 2.6 km/h 95 % 0 mm
01:42 -15.8 °C -16.2 °C 34496.6 hPa NNW 2.6 km/h 5.1 km/h 95 % 0 mm
01:47 -15.8 °C -16.2 °C 34496.6 hPa Calm   5.1 km/h 95 % 0 mm
01:52 -15.8 °C -16.1 °C 34510.1 hPa North 2.6 km/h 5.1 km/h 96 % 0 mm
01:57 -15.8 °C -16.1 °C 34510.1 hPa Calm   5.1 km/h 96 % 0 mm
02:02 -15.7 °C -16.1 °C 34496.6 hPa NNE 5.1 km/h 5.1 km/h 96 % 0 mm
02:12 -15.6 °C -15.9 °C 34496.6 hPa Calm   7.7 km/h 96 % 0 mm
02:17 -15.6 °C -15.9 °C 34496.6 hPa Calm   7.7 km/h 96 % 0 mm
02:22 -15.7 °C -16.1 °C 34496.6 hPa Calm   7.7 km/h 96 % 0 mm
02:27 -15.7 °C -16 °C 34496.6 hPa Calm     96 % 0 mm
02:32 -15.6 °C -15.9 °C 34496.6 hPa Calm     96 % 0 mm
02:42 -15.7 °C -16 °C 34496.6 hPa Calm     96 % 0 mm
02:47 -15.7 °C -16 °C 34496.6 hPa Calm   2.6 km/h 96 % 0 mm
02:52 -15.7 °C -16.1 °C 34496.6 hPa Calm   2.6 km/h 96 % 0 mm
02:57 -15.6 °C -15.9 °C 34496.6 hPa NNE 5.1 km/h 5.1 km/h 96 % 0 mm
03:02 -15.7 °C -16 °C 34496.6 hPa North 2.6 km/h 5.1 km/h 96 % 0 mm
03:12 -15.7 °C -16 °C 34496.6 hPa Calm   10.3 km/h 96 % 0 mm
03:17 -15.7 °C -16 °C 34496.6 hPa Calm   5.1 km/h 96 % 0 mm
03:22 -15.6 °C -15.8 °C 34496.6 hPa Calm   5.1 km/h 97 % 0 mm
03:32 -15.6 °C -15.8 °C 34496.6 hPa Calm     97 % 0 mm
03:42 -15.7 °C -15.9 °C 34496.6 hPa Calm     97 % 0 mm
03:47 -15.7 °C -16.1 °C 34496.6 hPa Calm     96 % 0 mm
03:52 -15.7 °C -16.1 °C 34510.1 hPa Calm     96 % 0 mm
04:02 -15.7 °C -15.9 °C 34496.6 hPa North 2.6 km/h   97 % 0 mm
04:07 -15.7 °C -15.9 °C 34496.6 hPa North 2.6 km/h 5.1 km/h 97 % 0 mm
04:12 -15.7 °C -15.9 °C 34496.6 hPa Calm   5.1 km/h 97 % 0 mm
04:17 -15.7 °C -15.9 °C 34510.1 hPa Calm   5.1 km/h 97 % 0 mm
04:22 -15.6 °C -15.8 °C 34510.1 hPa Calm   5.1 km/h 97 % 0 mm
04:27 -15.6 °C -15.8 °C 34510.1 hPa NNW 5.1 km/h 5.1 km/h 97 % 0 mm
04:32 -15.5 °C -15.7 °C 34496.6 hPa NNW 2.6 km/h 2.6 km/h 97 % 0 mm
04:37 -15.5 °C -15.7 °C 34496.6 hPa NNW 2.6 km/h 12.9 km/h 97 % 0 mm
04:42 -15.5 °C -15.7 °C 34496.6 hPa NW 2.6 km/h 12.9 km/h 97 % 0 mm
04:47 -15.4 °C -15.7 °C 34510.1 hPa NNW 5.1 km/h 12.9 km/h 97 % 0 mm
04:52 -15.4 °C -15.7 °C 34510.1 hPa Calm   12.9 km/h 97 % 0 mm
04:57 -15.4 °C -15.6 °C 34510.1 hPa NNE 5.1 km/h 7.7 km/h 97 % 0 mm
05:02 -15.4 °C -15.6 °C 34496.6 hPa North 2.6 km/h 7.7 km/h 97 % 0 mm
05:12 -15.3 °C -15.7 °C 34520.3 hPa Calm   7.7 km/h 96 % 0 mm
05:17 -15.3 °C -15.7 °C 34520.3 hPa Calm   5.1 km/h 96 % 0 mm
05:22 -15.3 °C -15.7 °C 34520.3 hPa Calm   5.1 km/h 96 % 0 mm
05:32 -15.4 °C -15.7 °C 34520.3 hPa Calm   2.6 km/h 96 % 0 mm
05:37 -15.4 °C -15.7 °C 34520.3 hPa NW 2.6 km/h 2.6 km/h 96 % 0 mm
05:42 -15.3 °C -15.6 °C 34533.8 hPa WNW 2.6 km/h 2.6 km/h 97 % 0 mm
05:47 -15.3 °C -15.6 °C 34533.8 hPa Calm   5.1 km/h 97 % 0 mm
05:52 -15.3 °C -15.7 °C 34533.8 hPa Calm   5.1 km/h 96 % 0 mm
05:57 -15.3 °C -15.7 °C 34533.8 hPa Calm   5.1 km/h 96 % 0 mm
06:02 -15.3 °C -15.7 °C 34533.8 hPa Calm   5.1 km/h 96 % 0 mm
06:12 -15.2 °C -15.4 °C 34520.3 hPa NNW 2.6 km/h 2.6 km/h 97 % 0 mm
06:17 -15.2 °C -15.6 °C 34520.3 hPa Calm   5.1 km/h 96 % 7.62 mm
06:22 -15.2 °C -15.6 °C 34520.3 hPa NNW 5.1 km/h 5.1 km/h 96 % 7.62 mm
06:27 -15.2 °C -15.6 °C 34533.8 hPa Calm   7.7 km/h 96 % 7.62 mm
06:32 -15.2 °C -15.5 °C 34533.8 hPa Calm   7.7 km/h 96 % 7.62 mm
06:37 -15.2 °C -15.5 °C 34544 hPa North 2.6 km/h 5.1 km/h 96 % 7.62 mm
06:42 -15.1 °C -15.4 °C 34544 hPa NNE 2.6 km/h 5.1 km/h 96 % 7.62 mm
06:52 -15.1 °C -15.4 °C 34554.1 hPa Calm   7.7 km/h 96 % 7.62 mm
06:57 -15.1 °C -15.4 °C 34554.1 hPa Calm   7.7 km/h 96 % 7.62 mm
07:02 -15.1 °C -15.4 °C 34544 hPa Calm   2.6 km/h 96 % 12.7 mm
07:12 -15.1 °C -15.4 °C 34544 hPa Calm   2.6 km/h 96 % 12.7 mm
07:17 -15.1 °C -15.4 °C 34544 hPa Calm   2.6 km/h 96 % 12.7 mm
07:22 -15.1 °C -15.4 °C 34554.1 hPa Calm   2.6 km/h 96 % 12.7 mm
07:32 -14.9 °C -15.3 °C 34554.1 hPa Calm     96 % 12.7 mm
07:37 -14.9 °C -15.3 °C 34567.7 hPa Calm     96 % 12.7 mm
07:42 -14.9 °C -15.2 °C 34567.7 hPa Calm     96 % 12.7 mm
07:52 -14.9 °C -15.2 °C 34567.7 hPa Calm     96 % 12.7 mm
08:02 -14.8 °C -15.2 °C 34567.7 hPa Calm   2.6 km/h 96 % 12.7 mm
08:07 -14.8 °C -15.1 °C 34567.7 hPa NE 2.6 km/h 10.3 km/h 96 % 7.62 mm
08:17 -14.7 °C -15 °C 34567.7 hPa NE 7.7 km/h 15.6 km/h 96 % 7.62 mm
08:22 -14.7 °C -15 °C 34567.7 hPa NNE 12.9 km/h 15.6 km/h 96 % 7.62 mm
08:27 -14.6 °C -14.9 °C 34577.8 hPa NNE 10.3 km/h 15.6 km/h 96 % 7.62 mm
08:32 -14.6 °C -14.9 °C 34577.8 hPa NNE 5.1 km/h 15.6 km/h 96 % 7.62 mm
08:42 -14.5 °C -14.8 °C 34567.7 hPa NNE 12.9 km/h 15.6 km/h 96 % 7.62 mm
08:47 -14.4 °C -14.7 °C 34567.7 hPa NNE 7.7 km/h 20.8 km/h 96 % 0 mm
08:52 -14.4 °C -14.7 °C 34577.8 hPa North 5.1 km/h 20.8 km/h 96 % 0 mm
09:02 -14.3 °C -14.7 °C 34577.8 hPa NE 7.7 km/h 20.8 km/h 95 % 0 mm
09:07 -14.3 °C -14.7 °C 34577.8 hPa ESE 5.1 km/h 23.3 km/h 95 % 0 mm
09:12 -14.3 °C -14.7 °C 34591.4 hPa NNE 15.6 km/h 23.3 km/h 95 % 0 mm
09:17 -14.3 °C -14.7 °C 34577.8 hPa NE 15.6 km/h 23.3 km/h 95 % 0 mm
09:22 -14.3 °C -14.7 °C 34591.4 hPa NE 10.3 km/h 23.3 km/h 95 % 0 mm
09:32 -14.2 °C -14.6 °C 34591.4 hPa NNE 7.7 km/h 23.3 km/h 95 % 0 mm
09:42 -14.2 °C -14.6 °C 34591.4 hPa Calm   23.3 km/h 95 % 0 mm
09:47 -14.2 °C -14.6 °C 34591.4 hPa NE 12.9 km/h 23.3 km/h 95 % 0 mm
09:52 -14.1 °C -14.5 °C 34591.4 hPa North 10.3 km/h 23.3 km/h 95 % 0 mm
10:02 -14.1 °C -14.5 °C 34601.5 hPa ENE 2.6 km/h 15.6 km/h 95 % 0 mm
10:12 -14.1 °C -14.4 °C 34611.7 hPa NNE 7.7 km/h 18.2 km/h 95 % 0 mm
10:22 -14 °C -14.4 °C 34611.7 hPa NNE 7.7 km/h 15.6 km/h 95 % 0 mm
10:32 -13.9 °C -14.3 °C 34611.7 hPa NNE 5.1 km/h 18.2 km/h 96 % 12.7 mm
10:37 -13.9 °C -14.3 °C 34611.7 hPa NNE 15.6 km/h 25.9 km/h 96 % 12.7 mm
10:42 -13.9 °C -14.3 °C 34611.7 hPa NNE 7.7 km/h 25.9 km/h 96 % 12.7 mm
10:47 -13.8 °C -14.2 °C 34625.2 hPa NNE 12.9 km/h 25.9 km/h 96 % 12.7 mm
10:52 -13.8 °C -14.2 °C 34625.2 hPa NE 10.3 km/h 25.9 km/h 96 % 12.7 mm
11:02 -13.8 °C -14.1 °C 34611.7 hPa NE 12.9 km/h 23.3 km/h 96 % 20.32 mm
11:07 -13.7 °C -14.1 °C 34611.7 hPa NNE 23.3 km/h 28.5 km/h 96 % 20.32 mm
11:17 -13.6 °C -13.9 °C 34625.2 hPa NNE 15.6 km/h 25.9 km/h 96 % 12.7 mm
11:22 -13.6 °C -13.9 °C 34625.2 hPa NE 7.7 km/h 25.9 km/h 96 % 12.7 mm
11:27 -13.5 °C -13.8 °C 34625.2 hPa NNE 41.4 km/h 41.4 km/h 96 % 12.7 mm
11:37 -13.4 °C -13.7 °C 34611.7 hPa NNE 10.3 km/h 41.4 km/h 96 % 7.62 mm
11:42 -13.3 °C -13.8 °C 34611.7 hPa NE 18.2 km/h 41.4 km/h 95 % 7.62 mm
11:52 -13.2 °C -13.7 °C 34611.7 hPa NNE 20.8 km/h 31.1 km/h 95 % 7.62 mm
12:02 -13.1 °C -13.6 °C 34601.5 hPa NE 15.6 km/h 36.2 km/h 94 % 0 mm
12:12 -12.8 °C -13.3 °C 34601.5 hPa NNE 28.5 km/h 38.8 km/h 94 % 0 mm
12:17 -12.7 °C -13.3 °C 34611.7 hPa ENE 20.8 km/h 41.4 km/h 93 % 0 mm
12:22 -12.6 °C -13.2 °C 34611.7 hPa NE 23.3 km/h 41.4 km/h 93 % 0 mm
12:32 -12.3 °C -13.1 °C 34611.7 hPa NE 12.9 km/h 36.2 km/h 91 % 0 mm
12:37 -12.3 °C -13.2 °C 34611.7 hPa NNE 10.3 km/h 41.4 km/h 90 % 0 mm
12:42 -12.2 °C -13.1 °C 34625.2 hPa ENE 20.8 km/h 41.4 km/h 89 % 0 mm
12:47 -12.2 °C -13.2 °C 34625.2 hPa NE 15.6 km/h 41.4 km/h 88 % 0 mm
12:52 -12.1 °C -13 °C 34625.2 hPa NNE 7.7 km/h 41.4 km/h 89 % 0 mm
13:02 -11.8 °C -13 °C 34625.2 hPa NNE 23.3 km/h 38.8 km/h 87 % 0 mm
13:12 -11.9 °C -13.1 °C 34625.2 hPa NE 31.1 km/h 31.1 km/h 86 % 0 mm
13:22 -11.8 °C -13.2 °C 34625.2 hPa NE 33.6 km/h 38.8 km/h 85 % 0 mm
13:32 -11.7 °C -13.2 °C 34625.2 hPa NE 7.7 km/h 46.7 km/h 84 % 0 mm
13:37 -11.7 °C -13.3 °C 34611.7 hPa NE 20.8 km/h 46.7 km/h 82 % 0 mm
13:42 -11.6 °C -13.1 °C 34611.7 hPa NNE 20.8 km/h 46.7 km/h 83 % 0 mm
13:47 -11.5 °C -13.1 °C 34611.7 hPa NE 20.8 km/h 46.7 km/h 83 % 0 mm
13:52 -11.4 °C -13.1 °C 34611.7 hPa NE 15.6 km/h 46.7 km/h 82 % 0 mm
13:57 -11.4 °C -13.1 °C 34611.7 hPa NE 31.1 km/h 38.8 km/h 81 % 0 mm
14:02 -11.3 °C -13.2 °C 34611.7 hPa NE 15.6 km/h 38.8 km/h 80 % 0 mm
14:12 -11.3 °C -13.2 °C 34611.7 hPa NNE 41.4 km/h 41.4 km/h 79 % 0 mm
14:22 -11.3 °C -13.3 °C 34611.7 hPa NNE 12.9 km/h 49.2 km/h 79 % 0 mm
14:32 -11.3 °C -13.1 °C 34601.5 hPa NE 7.7 km/h 49.2 km/h 81 % 0 mm
14:37 -11.2 °C -13.1 °C 34601.5 hPa NNE 18.2 km/h 36.2 km/h 80 % 0 mm
14:42 -11.2 °C -13.1 °C 34601.5 hPa NE 20.8 km/h 36.2 km/h 79 % 0 mm
14:47 -11.2 °C -13.2 °C 34601.5 hPa ENE 33.6 km/h 36.2 km/h 78 % 0 mm
14:52 -11.2 °C -13.2 °C 34601.5 hPa North 18.2 km/h 36.2 km/h 78 % 0 mm
14:57 -11.1 °C -13.1 °C 34601.5 hPa ESE 12.9 km/h 38.8 km/h 79 % 0 mm
15:02 -11.2 °C -13.2 °C 34601.5 hPa NE 12.9 km/h 38.8 km/h 78 % 0 mm
15:12 -11.2 °C -13 °C 34591.4 hPa NE 20.8 km/h 41.4 km/h 80 % 0 mm
15:17 -11.1 °C -13.1 °C 34591.4 hPa NE 25.9 km/h 41.4 km/h 79 % 0 mm
15:27 -11.1 °C -13.1 °C 34601.5 hPa NE 25.9 km/h 38.8 km/h 78 % 0 mm
15:32 -11.1 °C -13 °C 34601.5 hPa NNE 33.6 km/h 38.8 km/h 79 % 0 mm
15:37 -11.1 °C -13 °C 34601.5 hPa NNE 20.8 km/h 44.1 km/h 79 % 0 mm
15:42 -11.1 °C -12.9 °C 34601.5 hPa NE 28.5 km/h 44.1 km/h 80 % 0 mm
15:47 -11.1 °C -12.9 °C 34601.5 hPa NNE 25.9 km/h 46.7 km/h 80 % 0 mm
15:52 -11 °C -12.9 °C 34601.5 hPa North 36.2 km/h 46.7 km/h 79 % 0 mm
15:57 -11.1 °C -12.9 °C 34601.5 hPa East 25.9 km/h 41.4 km/h 80 % 0 mm
16:02 -11.1 °C -13.1 °C 34601.5 hPa ENE 23.3 km/h 41.4 km/h 79 % 0 mm
16:12 -11.2 °C -13 °C 34601.5 hPa NE 38.8 km/h 41.4 km/h 80 % 0 mm
16:17 -11.2 °C -13.1 °C 34591.4 hPa NNE 25.9 km/h 49.2 km/h 80 % 0 mm
16:22 -11.2 °C -13.1 °C 34591.4 hPa NNW 15.6 km/h 49.2 km/h 80 % 0 mm
16:32 -11.3 °C -13.1 °C 34591.4 hPa NE 15.6 km/h 49.2 km/h 81 % 0 mm
16:37 -11.3 °C -13.1 °C 34601.5 hPa NE 18.2 km/h 49.2 km/h 81 % 0 mm
16:42 -11.3 °C -13.1 °C 34591.4 hPa NNE 31.1 km/h 49.2 km/h 81 % 0 mm
16:52 -11.3 °C -13 °C 34601.5 hPa NNE 20.8 km/h 46.7 km/h 82 % 0 mm
16:57 -11.4 °C -13.1 °C 34601.5 hPa ENE 31.1 km/h 38.8 km/h 82 % 0 mm
17:02 -11.4 °C -13.1 °C 34601.5 hPa NNE 20.8 km/h 38.8 km/h 82 % 0 mm
17:12 -11.4 °C -13 °C 34611.7 hPa ENE 20.8 km/h 44.1 km/h 83 % 0 mm
17:17 -11.4 °C -13 °C 34611.7 hPa NNE 15.6 km/h 38.8 km/h 83 % 0 mm
17:22 -11.4 °C -13 °C 34611.7 hPa ENE 5.1 km/h 38.8 km/h 83 % 0 mm
17:27 -11.4 °C -12.9 °C 34611.7 hPa North 23.3 km/h 38.8 km/h 84 % 0 mm
17:32 -11.4 °C -12.9 °C 34611.7 hPa NE 10.3 km/h 38.8 km/h 84 % 0 mm
17:42 -11.4 °C -12.9 °C 34611.7 hPa North 20.8 km/h 33.6 km/h 84 % 0 mm
17:52 -11.4 °C -12.8 °C 34611.7 hPa NNE 15.6 km/h 28.5 km/h 84 % 0 mm
17:57 -11.4 °C -12.9 °C 34611.7 hPa NNE 15.6 km/h 36.2 km/h 84 % 0 mm
18:02 -11.4 °C -12.9 °C 34611.7 hPa NNE 7.7 km/h 36.2 km/h 84 % 0 mm
18:07 -11.4 °C -12.9 °C 34625.2 hPa NE 15.6 km/h 31.1 km/h 84 % 0 mm
18:12 -11.4 °C -12.8 °C 34625.2 hPa North 7.7 km/h 31.1 km/h 85 % 0 mm
18:17 -11.5 °C -12.8 °C 34625.2 hPa NE 15.6 km/h 31.1 km/h 85 % 0 mm
18:22 -11.5 °C -12.8 °C 34625.2 hPa NNE 20.8 km/h 28.5 km/h 85 % 0 mm
18:32 -11.6 °C -12.8 °C 34625.2 hPa NE 7.7 km/h 23.3 km/h 86 % 0 mm
18:42 -11.6 °C -12.8 °C 34625.2 hPa NNE 12.9 km/h 23.3 km/h 86 % 0 mm
18:47 -11.6 °C -12.8 °C 34635.4 hPa NE 5.1 km/h 23.3 km/h 86 % 0 mm
18:52 -11.6 °C -12.9 °C 34635.4 hPa NE 12.9 km/h 23.3 km/h 86 % 0 mm
18:57 -11.6 °C -12.9 °C 34625.2 hPa NE 12.9 km/h 23.3 km/h 86 % 0 mm
19:02 -11.6 °C -12.9 °C 34611.7 hPa NNW 15.6 km/h 23.3 km/h 86 % 0 mm
19:12 -11.7 °C -13 °C 34601.5 hPa NE 31.1 km/h 31.1 km/h 86 % 0 mm
19:17 -11.7 °C -13 °C 34601.5 hPa NNW 10.3 km/h 28.5 km/h 86 % 0 mm
19:22 -11.7 °C -13 °C 34601.5 hPa NE 25.9 km/h 31.1 km/h 86 % 0 mm
19:32 -11.8 °C -12.9 °C 34601.5 hPa NE 20.8 km/h 38.8 km/h 87 % 0 mm
19:37 -11.8 °C -13 °C 34601.5 hPa NNE 15.6 km/h 44.1 km/h 87 % 0 mm
19:42 -11.8 °C -13 °C 34601.5 hPa ENE 15.6 km/h 44.1 km/h 87 % 0 mm
19:47 -11.9 °C -13.1 °C 34591.4 hPa NNE 25.9 km/h 41.4 km/h 87 % 0 mm
19:52 -11.8 °C -13 °C 34601.5 hPa NNE 15.6 km/h 44.1 km/h 87 % 0 mm
19:57 -11.8 °C -13 °C 34601.5 hPa NE 20.8 km/h 44.1 km/h 87 % 0 mm
20:07 -11.8 °C -12.9 °C 34625.2 hPa NNE 7.7 km/h 46.7 km/h 87 % 0 mm
20:12 -11.8 °C -13 °C 34625.2 hPa NNE 12.9 km/h 46.7 km/h 87 % 0 mm
20:17 -11.8 °C -12.9 °C 34625.2 hPa NNE 12.9 km/h 38.8 km/h 88 % 0 mm
20:22 -11.8 °C -12.9 °C 34625.2 hPa NNE 18.2 km/h 38.8 km/h 88 % 0 mm
20:27 -11.9 °C -12.9 °C 34635.4 hPa NNW 15.6 km/h 28.5 km/h 88 % 0 mm
20:37 -11.9 °C -12.9 °C 34635.4 hPa NE 12.9 km/h 28.5 km/h 88 % 0 mm
20:42 -11.9 °C -12.9 °C 34625.2 hPa NE 25.9 km/h 28.5 km/h 88 % 0 mm
20:47 -12 °C -13.1 °C 34625.2 hPa NE 25.9 km/h 38.8 km/h 88 % 0 mm
20:52 -12 °C -13.1 °C 34635.4 hPa NNE 7.7 km/h 38.8 km/h 88 % 0 mm
20:57 -12 °C -13.1 °C 34625.2 hPa NE 25.9 km/h 36.2 km/h 88 % 0 mm
21:02 -12.1 °C -13.1 °C 34625.2 hPa NE 23.3 km/h 36.2 km/h 88 % 0 mm
21:12 -12 °C -13.2 °C 34625.2 hPa NNE 25.9 km/h 36.2 km/h 87 % 0 mm
21:17 -12 °C -13.2 °C 34635.4 hPa NNE 31.1 km/h 49.2 km/h 87 % 0 mm
21:22 -12.1 °C -13.2 °C 34635.4 hPa NNE 25.9 km/h 49.2 km/h 87 % 0 mm
21:32 -12.1 °C -13.2 °C 34645.6 hPa NE 15.6 km/h 38.8 km/h 88 % 0 mm
21:37 -12.1 °C -13.2 °C 34645.6 hPa NE 20.8 km/h 33.6 km/h 88 % 0 mm
21:42 -12.2 °C -13.2 °C 34645.6 hPa NNE 12.9 km/h 33.6 km/h 88 % 0 mm
21:47 -12.2 °C -13.3 °C 34645.6 hPa NNE 31.1 km/h 33.6 km/h 88 % 0 mm
21:52 -12.2 °C -13.3 °C 34645.6 hPa NE 18.2 km/h 33.6 km/h 88 % 0 mm
21:57 -12.3 °C -13.3 °C 34645.6 hPa NNE 25.9 km/h 38.8 km/h 88 % 0 mm
22:02 -12.3 °C -13.3 °C 34645.6 hPa NNE 12.9 km/h 38.8 km/h 88 % 0 mm
22:12 -12.3 °C -13.4 °C 34635.4 hPa North 18.2 km/h 38.8 km/h 88 % 0 mm
22:17 -12.4 °C -13.4 °C 34645.6 hPa NNE 15.6 km/h 33.6 km/h 88 % 0 mm
22:22 -12.4 °C -13.4 °C 34645.6 hPa NNE 23.3 km/h 33.6 km/h 88 % 0 mm
22:32 -12.4 °C -13.6 °C 34645.6 hPa NNE 18.2 km/h 36.2 km/h 87 % 0 mm
22:37 -12.4 °C -13.5 °C 34645.6 hPa NNE 25.9 km/h 33.6 km/h 88 % 0 mm
22:42 -12.4 °C -13.6 °C 34645.6 hPa NE 18.2 km/h 33.6 km/h 87 % 0 mm
22:47 -12.4 °C -13.6 °C 34645.6 hPa NE 20.8 km/h 38.8 km/h 87 % 0 mm
22:52 -12.5 °C -13.6 °C 34635.4 hPa NNE 10.3 km/h 38.8 km/h 88 % 0 mm
23:02 -12.4 °C -13.5 °C 34635.4 hPa NNE 25.9 km/h 31.1 km/h 88 % 0 mm
23:12 -12.4 °C -13.5 °C 34635.4 hPa NE 20.8 km/h 28.5 km/h 88 % 0 mm
23:17 -12.4 °C -13.5 °C 34635.4 hPa NE 23.3 km/h 31.1 km/h 88 % 0 mm
23:22 -12.4 °C -13.5 °C 34625.2 hPa ENE 15.6 km/h 31.1 km/h 88 % 0 mm
23:27 -12.4 °C -13.5 °C 34625.2 hPa North 5.1 km/h 33.6 km/h 88 % 0 mm
23:32 -12.4 °C -13.4 °C 34625.2 hPa North 10.3 km/h 33.6 km/h 88 % 0 mm
23:37 -12.5 °C -13.6 °C 34625.2 hPa North 15.6 km/h 33.6 km/h 88 % 0 mm
23:42 -12.5 °C -13.6 °C 34625.2 hPa NNE 18.2 km/h 33.6 km/h 88 % 0 mm
23:52 -12.6 °C -13.6 °C 34625.2 hPa NNW 10.3 km/h 31.1 km/h 88 % 0 mm
23:57 -12.6 °C -13.7 °C 34625.2 hPa NNE 23.3 km/h 31.1 km/h 88 % 0 mm
Meteo18
Compliments of Weather Underground - 4 mb

Script developed by  Jim McMurry - jmcmurry@mwt.net Adapted for the template by  Wim van der Kuil - Leuven-Template.eu

You find our weather info also at:

European Weather Network

Weather Underground

Equipment we use:

Weather-station
Davis Vue

Weather-program
Meteobridge

Weather-server
Raspberry PI 2 B+

Provider
1 and 1

Davis Vue

Meteobridge

Raspberry PI 2 B+

1 and 1